Time;durP1;ratioP1;P1;durP2;ratioP2;P2;SDS_P1;SDS_P2;PMS_P1;PMS_P2;Temp;Humidity;BMP_temperature;BMP_pressure;BME280_temperature;BME280_humidity;BME280_pressure;Samples;Min_cycle;Max_cycle;Signal;HPM_P1;HPM_P2
2022/03/21 00:01:20;;;;;;;11.50;7.50;;;;;;;2.74;39.26;98691.34;1684732;84;21124;-79
2022/03/21 00:03:46;;;;;;;26.07;17.30;;;;;;;2.68;39.42;98697.62;1679396;84;21089;-79
2022/03/21 00:06:12;;;;;;;19.12;12.73;;;;;;;2.58;39.13;98695.11;1684706;84;20949;-79
2022/03/21 00:08:39;;;;;;;19.52;12.88;;;;;;;2.53;40.36;98692.41;1696189;84;21037;-79
2022/03/21 00:11:05;;;;;;;10.43;7.78;;;;;;;2.44;40.53;98700.54;1672279;85;20955;-79
2022/03/21 00:13:30;;;;;;;8.85;6.03;;;;;;;2.32;40.81;98701.53;1672187;85;21470;-79
2022/03/21 00:15:56;;;;;;;8.15;6.15;;;;;;;2.21;41.13;98705.50;1672148;85;21042;-80
2022/03/21 00:18:23;;;;;;;8.05;6.17;;;;;;;2.09;41.47;98706.91;1672188;86;20995;-80
2022/03/21 00:20:52;;;;;;;7.85;6.05;;;;;;;1.98;41.87;98702.30;1673114;84;21369;-79
2022/03/21 00:23:18;;;;;;;9.58;6.70;;;;;;;1.90;42.43;98705.66;1676396;84;21385;-79
2022/03/21 00:25:44;;;;;;;9.05;6.40;;;;;;;1.83;42.62;98704.30;1700472;83;21395;-79
2022/03/21 00:28:10;;;;;;;9.73;7.15;;;;;;;1.74;42.88;98708.09;1688629;83;21064;-79
2022/03/21 00:30:38;;;;;;;9.15;6.95;;;;;;;1.64;42.93;98706.87;1734744;82;21303;-79
2022/03/21 00:33:04;;;;;;;7.33;6.33;;;;;;;1.56;43.47;98708.09;1740101;81;21039;-79
2022/03/21 00:35:30;;;;;;;8.48;6.35;;;;;;;1.47;43.24;98706.80;1767683;81;21462;-79
2022/03/21 00:37:57;;;;;;;8.70;7.62;;;;;;;1.43;43.67;98707.36;1743658;81;20963;-79
2022/03/21 00:40:26;;;;;;;9.13;6.90;;;;;;;1.40;43.87;98707.95;1737181;82;20945;-79
2022/03/21 00:42:51;;;;;;;9.30;6.55;;;;;;;1.36;43.77;98709.83;1737320;82;20929;-79
2022/03/21 00:45:23;;;;;;;8.88;6.33;;;;;;;1.31;43.79;98701.97;1737220;82;21415;-79
2022/03/21 00:47:49;;;;;;;9.08;6.85;;;;;;;1.27;43.54;98699.14;1731109;81;20997;-79
2022/03/21 00:50:17;;;;;;;10.08;6.28;;;;;;;1.22;43.38;98698.52;1767474;81;20961;-79
2022/03/21 00:52:50;;;;;;;8.65;6.28;;;;;;;1.23;43.46;98702.73;1767510;81;21016;-79
2022/03/21 00:55:18;;;;;;;10.10;7.45;;;;;;;1.19;42.86;98696.47;1757085;81;20960;-79
2022/03/21 00:57:44;;;;;;;12.33;7.72;;;;;;;1.18;42.96;98702.50;1737045;82;21052;-79
2022/03/21 01:00:17;;;;;;;7.55;6.17;;;;;;;1.17;42.87;98703.40;1737226;82;21076;-79
2022/03/21 01:02:42;;;;;;;9.80;7.05;;;;;;;1.18;43.74;98705.51;1737328;83;21055;-79
2022/03/21 01:05:09;;;;;;;8.78;6.95;;;;;;;1.16;43.03;98696.62;1738035;81;21457;-79
2022/03/21 01:07:35;;;;;;;15.13;10.80;;;;;;;1.18;43.75;98703.78;1767485;81;21324;-79
2022/03/21 01:10:01;;;;;;;16.20;11.05;;;;;;;1.16;43.80;98701.73;1688207;85;20969;-79
2022/03/21 01:12:27;;;;;;;18.32;12.03;;;;;;;1.11;44.23;98697.24;1710343;84;20980;-79
2022/03/21 01:14:53;;;;;;;14.58;8.83;;;;;;;1.05;44.15;98699.25;1685853;83;21378;-79
2022/03/21 01:17:19;;;;;;;10.82;8.13;;;;;;;1.01;44.35;98696.45;1739664;81;21123;-79
2022/03/21 01:19:45;;;;;;;8.43;6.50;;;;;;;0.96;44.35;98695.34;1767583;81;21400;-79
2022/03/21 01:22:11;;;;;;;10.32;7.80;;;;;;;0.84;44.83;98699.72;1755315;81;21005;-79
2022/03/21 01:24:38;;;;;;;9.45;7.17;;;;;;;0.78;44.76;98692.28;1749322;81;21131;-79
2022/03/21 01:27:05;;;;;;;10.40;8.13;;;;;;;0.74;45.45;98697.16;1750764;80;21331;-79
2022/03/21 01:29:31;;;;;;;10.40;7.25;;;;;;;0.69;45.21;98695.25;1767323;81;21008;-79
2022/03/21 01:31:57;;;;;;;10.10;6.42;;;;;;;0.66;45.86;98697.94;1767282;81;21119;-79
2022/03/21 01:34:23;;;;;;;8.50;6.80;;;;;;;0.63;46.38;98698.04;1743533;81;20969;-79
2022/03/21 01:36:48;;;;;;;8.40;6.20;;;;;;;0.57;46.54;98692.73;1734168;82;21000;-79
2022/03/21 01:39:14;;;;;;;9.33;6.47;;;;;;;0.54;46.50;98690.31;1734823;82;21385;-79
2022/03/21 01:41:40;;;;;;;10.30;7.20;;;;;;;0.50;46.73;98696.01;1734811;82;21494;-79
2022/03/21 01:44:08;;;;;;;9.45;6.95;;;;;;;0.47;46.80;98684.59;1734861;82;21024;-79
2022/03/21 01:46:34;;;;;;;10.90;7.53;;;;;;;0.45;47.07;98683.83;1734947;82;21016;-79
2022/03/21 01:49:00;;;;;;;10.60;7.58;;;;;;;0.42;47.27;98681.85;1734751;81;21280;-79
2022/03/21 01:51:26;;;;;;;11.45;7.40;;;;;;;0.40;47.44;98674.25;1734632;83;20987;-79
2022/03/21 01:56:42;;;;;;;12.23;7.30;;;;;;;0.37;47.81;98673.55;1734727;82;20997;-79
2022/03/21 01:59:08;;;;;;;10.63;7.08;;;;;;;0.34;48.10;98680.07;1734644;82;21003;-79
2022/03/21 02:01:35;;;;;;;10.03;6.90;;;;;;;0.31;48.06;98674.61;1734428;81;21095;-79
2022/03/21 02:04:01;;;;;;;9.03;6.62;;;;;;;0.32;47.93;98680.55;1734779;81;21434;-79
2022/03/21 02:06:28;;;;;;;9.93;6.60;;;;;;;0.33;48.04;98675.41;1735886;81;21028;-79
2022/03/21 02:08:58;;;;;;;10.78;6.95;;;;;;;0.31;48.17;98672.05;1735351;81;21048;-79
2022/03/21 02:11:25;;;;;;;9.25;6.95;;;;;;;0.31;48.09;98675.89;1734471;82;20967;-79
2022/03/21 02:13:54;;;;;;;8.85;6.78;;;;;;;0.30;48.13;98674.22;1734805;82;20965;-79
2022/03/21 02:16:24;;;;;;;8.93;6.90;;;;;;;0.28;48.40;98672.17;1739383;82;21380;-79
2022/03/21 02:18:50;;;;;;;9.58;6.55;;;;;;;0.28;48.29;98674.73;1744425;81;21247;-79
2022/03/21 02:21:38;;;;;;;10.72;8.00;;;;;;;0.28;48.24;98674.73;1734723;82;20995;-79
2022/03/21 02:24:17;;;;;;;11.12;7.83;;;;;;;0.27;48.09;98670.06;1733559;83;20964;-79
2022/03/21 02:26:45;;;;;;;9.20;6.97;;;;;;;0.26;48.33;98671.41;1734279;83;21028;-79
2022/03/21 02:29:10;;;;;;;9.45;6.75;;;;;;;0.22;48.38;98666.05;1734540;82;21316;-79
2022/03/21 02:31:36;;;;;;;9.88;7.28;;;;;;;0.21;48.60;98675.44;1734572;82;21063;-79
2022/03/21 02:34:01;;;;;;;10.38;7.25;;;;;;;0.18;48.44;98673.02;1735959;82;21044;-79
2022/03/21 02:36:27;;;;;;;10.25;6.58;;;;;;;0.16;48.38;98673.52;1735644;81;20997;-79
2022/03/21 02:38:55;;;;;;;9.50;7.25;;;;;;;0.15;48.58;98682.06;1737140;82;20984;-78
2022/03/21 02:41:22;;;;;;;9.48;7.15;;;;;;;0.14;48.83;98680.84;1736297;82;20945;-79
2022/03/21 02:43:56;;;;;;;10.88;7.42;;;;;;;0.11;48.81;98688.64;1737396;83;20964;-79
2022/03/21 02:46:22;;;;;;;12.40;7.80;;;;;;;0.08;49.03;98691.32;1737172;82;20984;-79
2022/03/21 02:48:49;;;;;;;10.70;7.60;;;;;;;0.06;49.08;98699.05;1737297;82;21076;-79
2022/03/21 02:51:16;;;;;;;12.18;7.85;;;;;;;0.04;49.03;98687.23;1737119;82;21112;-79
2022/03/21 02:53:42;;;;;;;9.40;7.33;;;;;;;0.04;49.09;98688.06;1737412;82;20949;-79
2022/03/21 02:56:09;;;;;;;10.28;8.10;;;;;;;0.03;49.19;98691.52;1720105;82;20956;-78
2022/03/21 02:58:35;;;;;;;9.30;7.33;;;;;;;0.01;49.14;98687.36;1716229;83;21342;-79
2022/03/21 03:01:12;;;;;;;9.05;7.03;;;;;;;-0.01;49.47;98689.50;1736317;81;20956;-79
2022/03/21 03:03:38;;;;;;;7.75;6.85;;;;;;;-0.03;49.50;98686.17;1748392;81;21374;-79
2022/03/21 03:06:04;;;;;;;9.63;7.12;;;;;;;-0.05;49.77;98679.46;1760718;81;20996;-79
2022/03/21 03:08:31;;;;;;;9.30;7.05;;;;;;;-0.09;49.70;98680.03;1749776;82;20952;-79
2022/03/21 03:10:57;;;;;;;10.35;7.12;;;;;;;-0.11;49.86;98681.82;1749400;82;21005;-78
2022/03/21 03:13:23;;;;;;;12.82;7.72;;;;;;;-0.12;50.12;98681.44;1749487;82;21331;-79
2022/03/21 03:15:49;;;;;;;8.88;7.17;;;;;;;-0.15;50.24;98680.28;1749398;82;20988;-79
2022/03/21 03:18:15;;;;;;;9.78;7.03;;;;;;;-0.16;50.39;98683.73;1749759;81;20964;-79
2022/03/21 03:20:51;;;;;;;10.65;8.38;;;;;;;-0.17;50.50;98677.38;1753310;80;21033;-78
2022/03/21 03:23:22;;;;;;;10.15;7.42;;;;;;;-0.19;50.50;98673.60;1750099;81;20992;-79
2022/03/21 03:25:53;;;;;;;8.40;7.47;;;;;;;-0.20;50.64;98674.49;1766354;81;21387;-78
2022/03/21 03:28:18;;;;;;;12.70;7.87;;;;;;;-0.21;50.73;98672.83;1737238;82;20938;-78
2022/03/21 03:30:44;;;;;;;9.80;8.08;;;;;;;-0.21;50.65;98672.83;1736851;81;20995;-78
2022/03/21 03:33:10;;;;;;;9.58;7.28;;;;;;;-0.22;50.43;98675.00;1740442;81;21005;-79
2022/03/21 03:35:36;;;;;;;9.55;7.17;;;;;;;-0.21;50.32;98676.66;1764746;81;21021;-78
2022/03/21 03:38:03;;;;;;;9.45;6.90;;;;;;;-0.21;50.42;98676.66;1765246;81;21020;-79
2022/03/21 03:40:28;;;;;;;10.43;7.65;;;;;;;-0.22;50.39;98681.39;1764502;81;21331;-79
2022/03/21 03:42:54;;;;;;;10.78;7.60;;;;;;;-0.23;50.36;98677.62;1748666;81;20977;-79
2022/03/21 03:45:20;;;;;;;9.93;7.42;;;;;;;-0.23;50.46;98677.62;1735618;82;20965;-79
2022/03/21 03:47:46;;;;;;;10.55;7.83;;;;;;;-0.25;50.47;98673.84;1738487;82;20973;-79
2022/03/21 03:50:12;;;;;;;11.05;7.55;;;;;;;-0.25;50.38;98672.57;1734664;82;21425;-79
2022/03/21 03:52:38;;;;;;;10.10;7.05;;;;;;;-0.22;50.63;98669.89;1734653;82;21033;-79
2022/03/21 03:55:06;;;;;;;11.03;7.78;;;;;;;-0.19;50.57;98674.05;1734164;82;21104;-78
2022/03/21 03:57:31;;;;;;;10.13;7.70;;;;;;;-0.21;50.12;98673.28;1734431;82;21040;-79
2022/03/21 03:59:57;;;;;;;11.25;8.23;;;;;;;-0.21;50.04;98675.83;1734531;82;21052;-79
2022/03/21 04:02:23;;;;;;;10.20;7.40;;;;;;;-0.23;49.96;98671.23;1734312;82;21569;-79
2022/03/21 04:04:49;;;;;;;11.25;7.80;;;;;;;-0.25;50.03;98673.84;1733184;82;21046;-79
2022/03/21 04:07:14;;;;;;;11.12;7.53;;;;;;;-0.27;50.05;98671.80;1738542;81;21017;-78
2022/03/21 04:09:40;;;;;;;10.13;7.72;;;;;;;-0.29;50.08;98671.03;1728026;83;21027;-79
2022/03/21 04:12:07;;;;;;;11.60;7.92;;;;;;;-0.30;50.24;98675.76;1729594;82;21066;-78
2022/03/21 04:14:32;;;;;;;12.45;8.80;;;;;;;-0.31;50.34;98675.37;1730038;82;21033;-79
2022/03/21 04:16:58;;;;;;;11.28;8.05;;;;;;;-0.31;50.50;98677.48;1732404;83;21026;-79
2022/03/21 04:19:24;;;;;;;10.78;7.75;;;;;;;-0.32;50.51;98680.09;1715784;83;21035;-79
2022/03/21 04:21:50;;;;;;;13.08;8.88;;;;;;;-0.33;50.60;98673.30;1763153;80;21312;-79
2022/03/21 04:24:16;;;;;;;11.33;7.97;;;;;;;-0.33;50.63;98673.30;1764125;81;20981;-79
2022/03/21 04:26:42;;;;;;;12.70;8.48;;;;;;;-0.33;50.74;98670.73;1688327;85;21048;-78
2022/03/21 04:29:08;;;;;;;9.80;7.33;;;;;;;-0.35;50.82;98673.80;1764467;81;20929;-79
2022/03/21 04:31:33;;;;;;;11.60;8.65;;;;;;;-0.33;50.97;98673.30;1764579;81;22072;-78
2022/03/21 04:33:59;;;;;;;8.80;7.45;;;;;;;-0.33;51.27;98672.88;1745466;80;21040;-78
2022/03/21 04:36:25;;;;;;;12.03;8.30;;;;;;;-0.33;51.22;98679.68;1734017;81;21027;-78
2022/03/21 04:38:51;;;;;;;10.55;9.00;;;;;;;-0.36;51.44;98680.63;1734597;82;20981;-78
2022/03/21 04:41:17;;;;;;;9.38;7.53;;;;;;;-0.38;51.75;98684.97;1763162;81;21380;-78
2022/03/21 04:43:43;;;;;;;10.63;7.62;;;;;;;-0.40;51.82;98675.70;1744918;81;21009;-79
2022/03/21 04:46:09;;;;;;;10.38;7.60;;;;;;;-0.42;51.70;98676.21;1748125;81;21064;-79
2022/03/21 04:48:34;;;;;;;11.10;7.85;;;;;;;-0.44;51.66;98678.83;1752308;81;20988;-79
2022/03/21 04:51:00;;;;;;;10.70;7.55;;;;;;;-0.45;51.64;98677.16;1745847;81;21033;-78
2022/03/21 04:53:26;;;;;;;11.40;7.80;;;;;;;-0.44;51.77;98682.66;1747563;81;20984;-78
2022/03/21 04:55:52;;;;;;;10.93;8.05;;;;;;;-0.43;51.92;98684.32;1763352;81;20993;-78
2022/03/21 04:58:17;;;;;;;11.90;7.25;;;;;;;-0.42;51.86;98682.59;1761016;81;21021;-79
2022/03/21 05:00:46;;;;;;;9.83;7.60;;;;;;;-0.42;52.06;98677.05;1735868;81;21000;-79
2022/03/21 05:03:12;;;;;;;9.55;7.65;;;;;;;-0.41;51.88;98675.32;1747007;81;20979;-78
2022/03/21 05:05:37;;;;;;;11.55;7.92;;;;;;;-0.42;51.85;98676.21;1740597;81;20984;-78
2022/03/21 05:08:04;;;;;;;10.85;7.87;;;;;;;-0.42;51.91;98680.88;1763689;81;21009;-78
2022/03/21 05:10:30;;;;;;;10.25;7.20;;;;;;;-0.41;52.35;98682.54;1755588;81;20980;-78
2022/03/21 05:12:57;;;;;;;9.90;7.03;;;;;;;-0.41;52.35;98686.37;1746959;82;21079;-78
2022/03/21 05:15:23;;;;;;;9.93;7.22;;;;;;;-0.41;52.46;98680.43;1752308;81;20987;-78
2022/03/21 05:17:51;;;;;;;8.43;6.50;;;;;;;-0.41;52.29;98688.09;1744345;82;20957;-78
2022/03/21 05:20:16;;;;;;;10.23;7.85;;;;;;;-0.40;52.68;98684.64;1742285;80;21005;-78
2022/03/21 05:30:57;;;;;;;10.38;7.28;;;;;;;-0.39;52.28;98679.92;1740487;81;20933;-79
2022/03/21 05:30:58;;;;;;;9.70;6.85;;;;;;;-0.32;52.27;98684.76;1759551;81;21012;-78
2022/03/21 05:36:08;;;;;;;9.33;7.22;;;;;;;-0.29;52.21;98687.64;1748366;81;21021;-79
2022/03/21 05:38:34;;;;;;;10.72;8.03;;;;;;;-0.26;52.34;98690.52;1734620;82;21331;-78
2022/03/21 05:41:01;;;;;;;9.55;7.15;;;;;;;-0.20;52.16;98690.27;1734203;81;21096;-79
2022/03/21 05:43:27;;;;;;;10.80;7.67;;;;;;;-0.17;52.43;98694.81;1734373;82;21372;-79
2022/03/21 05:45:55;;;;;;;10.28;7.40;;;;;;;-0.16;51.75;98694.40;1746138;81;21040;-79
2022/03/21 05:51:06;;;;;;;8.00;6.42;;;;;;;-0.11;52.00;98694.59;1747264;81;20953;-79
2022/03/21 05:53:32;;;;;;;7.85;7.05;;;;;;;-0.08;51.89;98688.53;1747090;82;21028;-79
2022/03/21 05:56:00;;;;;;;10.15;7.15;;;;;;;-0.06;51.82;98689.30;1746858;82;21296;-79
2022/03/21 05:58:27;;;;;;;8.90;7.40;;;;;;;-0.05;51.84;98696.91;1736523;82;21028;-78
2022/03/21 06:00:54;;;;;;;10.13;7.60;;;;;;;-0.04;51.77;98692.17;1746669;82;20973;-79
2022/03/21 06:03:19;;;;;;;9.60;6.90;;;;;;;-0.02;51.81;98694.67;1740413;82;21021;-79
2022/03/21 06:05:45;;;;;;;8.03;6.92;;;;;;;-0.01;51.88;98694.61;1729929;82;21348;-79
2022/03/21 06:08:11;;;;;;;8.80;7.35;;;;;;;0.03;52.04;98700.91;1729769;81;20949;-79
2022/03/21 06:10:37;;;;;;;8.58;6.60;;;;;;;0.07;51.79;98701.99;1752328;81;20996;-79
2022/03/21 06:13:07;;;;;;;8.43;7.10;;;;;;;0.13;52.17;98702.19;1741093;81;20917;-79
2022/03/21 06:15:34;;;;;;;10.32;8.55;;;;;;;0.16;51.89;98702.92;1744042;81;21032;-79
2022/03/21 06:17:59;;;;;;;8.80;6.33;;;;;;;0.22;51.65;98709.52;1754657;81;21031;-79
2022/03/21 06:20:26;;;;;;;9.40;7.37;;;;;;;0.31;52.37;98705.30;1749532;81;21430;-79
2022/03/21 06:22:52;;;;;;;10.65;7.00;;;;;;;0.37;51.87;98706.80;1742595;81;21018;-79
2022/03/21 06:25:18;;;;;;;9.75;7.17;;;;;;;0.44;51.74;98712.86;1746573;81;20981;-79
2022/03/21 06:27:44;;;;;;;9.00;7.45;;;;;;;0.54;51.84;98714.16;1757339;81;21020;-79
2022/03/21 06:30:10;;;;;;;9.03;8.05;;;;;;;0.65;51.78;98721.83;1760223;81;21348;-79
2022/03/21 06:32:37;;;;;;;8.08;6.92;;;;;;;0.72;51.70;98714.30;1752788;81;20948;-79
2022/03/21 06:35:04;;;;;;;8.70;6.75;;;;;;;0.80;52.05;98717.36;1739228;81;21048;-79
2022/03/21 06:37:31;;;;;;;10.80;7.40;;;;;;;0.87;52.05;98718.78;1734259;81;20941;-79
2022/03/21 06:39:57;;;;;;;10.38;7.53;;;;;;;0.94;52.63;98713.77;1741220;81;21001;-78
2022/03/21 06:42:23;;;;;;;8.75;6.80;;;;;;;1.03;52.66;98717.69;1732081;81;20949;-79
2022/03/21 06:44:49;;;;;;;7.15;6.28;;;;;;;1.09;52.76;98716.13;1737056;81;21007;-78
2022/03/21 06:47:20;;;;;;;8.23;7.05;;;;;;;1.17;52.55;98725.16;1740976;82;20996;-79
2022/03/21 06:49:47;;;;;;;9.35;7.12;;;;;;;1.27;52.15;98730.70;1734395;83;20957;-79
2022/03/21 06:52:13;;;;;;;10.40;7.28;;;;;;;1.36;50.86;98723.08;1759417;81;21001;-78
2022/03/21 06:54:38;;;;;;;8.50;6.87;;;;;;;1.47;50.66;98733.70;1755962;81;20944;-79
2022/03/21 06:57:05;;;;;;;9.80;7.60;;;;;;;1.57;50.51;98733.65;1741838;81;20953;-79
2022/03/21 06:59:32;;;;;;;12.88;9.18;;;;;;;1.67;49.55;98736.65;1746222;81;21331;-78
2022/03/21 07:01:57;;;;;;;13.68;9.33;;;;;;;1.78;48.31;98737.80;1750459;81;21060;-78
2022/03/21 07:04:23;;;;;;;11.55;8.18;;;;;;;1.91;48.10;98739.36;1740445;81;21024;-78
2022/03/21 07:06:53;;;;;;;13.28;9.80;;;;;;;2.04;48.71;98736.63;1679018;84;22017;-79
2022/03/21 07:09:19;;;;;;;10.70;8.55;;;;;;;2.13;48.54;98737.11;1737420;81;20996;-79
2022/03/21 07:11:45;;;;;;;11.43;8.75;;;;;;;2.24;48.00;98741.27;1733919;81;20993;-79
2022/03/21 07:14:12;;;;;;;11.75;8.35;;;;;;;2.34;47.26;98738.20;1761008;81;20952;-79
2022/03/21 07:16:37;;;;;;;12.53;9.05;;;;;;;2.44;46.79;98737.33;1747732;81;20940;-79
2022/03/21 07:19:03;;;;;;;12.35;8.53;;;;;;;2.54;46.95;98735.13;1746668;81;20949;-79
2022/03/21 07:21:30;;;;;;;13.80;11.00;;;;;;;2.63;47.87;98738.55;1744417;81;21001;-79
2022/03/21 07:23:55;;;;;;;13.90;10.15;;;;;;;2.73;46.85;98738.91;1741478;81;21367;-79
2022/03/21 07:26:21;;;;;;;15.83;11.22;;;;;;;2.86;46.48;98740.80;1743470;81;21015;-79
2022/03/21 07:28:47;;;;;;;17.23;11.28;;;;;;;2.98;46.32;98740.20;1737728;81;20977;-79
2022/03/21 07:31:13;;;;;;;15.95;11.05;;;;;;;3.12;46.13;98736.11;1734753;81;21044;-79
2022/03/21 07:33:40;;;;;;;17.55;11.83;;;;;;;3.22;46.51;98739.85;1745447;81;21063;-79
2022/03/21 07:36:08;;;;;;;19.75;12.70;;;;;;;3.31;46.05;98737.66;1743137;81;20976;-79
2022/03/21 07:38:35;;;;;;;14.60;9.68;;;;;;;3.47;45.66;98733.84;1734822;81;21063;-78
2022/03/21 07:41:02;;;;;;;17.05;12.93;;;;;;;3.59;47.90;98739.62;1737114;81;20988;-79
2022/03/21 07:43:28;;;;;;;21.23;14.53;;;;;;;3.70;46.71;98744.19;1734460;81;21411;-79
2022/03/21 07:48:39;;;;;;;17.32;13.25;;;;;;;3.96;47.68;98738.12;1730789;81;21027;-79
2022/03/21 07:51:07;;;;;;;21.77;15.30;;;;;;;4.08;46.65;98742.15;1747671;81;20968;-79
2022/03/21 07:53:33;;;;;;;21.20;14.93;;;;;;;4.17;45.47;98734.37;1747155;81;20999;-79
2022/03/21 07:55:59;;;;;;;23.02;15.53;;;;;;;4.28;45.26;98738.48;1748601;81;21063;-79
2022/03/21 07:58:27;;;;;;;26.77;17.40;;;;;;;4.40;45.13;98739.55;1762771;81;21575;-80
2022/03/21 08:00:53;;;;;;;26.60;17.62;;;;;;;4.49;44.65;98741.59;1745742;81;20993;-79
2022/03/21 08:03:19;;;;;;;28.27;16.93;;;;;;;4.56;43.95;98735.20;1683906;84;21387;-79
2022/03/21 08:05:45;;;;;;;24.45;15.53;;;;;;;4.66;44.73;98732.91;1764634;81;20993;-79
2022/03/21 08:08:11;;;;;;;22.30;15.08;;;;;;;4.75;43.86;98737.09;1756734;81;20941;-79
2022/03/21 08:10:38;;;;;;;32.75;21.33;;;;;;;4.83;43.47;98740.04;1747018;81;21044;-79
2022/03/21 08:13:04;;;;;;;32.98;21.20;;;;;;;4.88;43.78;98739.80;1750805;81;21323;-79
2022/03/21 08:15:30;;;;;;;32.30;21.42;;;;;;;4.96;43.25;98734.19;1687809;83;20994;-79
2022/03/21 08:17:59;;;;;;;29.85;19.57;;;;;;;5.03;43.14;98727.74;1702873;84;21426;-80
2022/03/21 08:20:34;;;;;;;31.42;20.70;;;;;;;5.13;43.59;98729.70;1742006;80;21391;-79
2022/03/21 08:23:01;;;;;;;30.77;21.07;;;;;;;5.22;42.94;98729.63;1746355;81;21004;-79
2022/03/21 08:25:27;;;;;;;28.52;20.45;;;;;;;5.31;42.92;98728.23;1739545;81;20952;-79
2022/03/21 08:27:53;;;;;;;31.10;21.90;;;;;;;5.36;42.00;98728.33;1746647;81;20985;-80
2022/03/21 08:30:19;;;;;;;35.17;21.80;;;;;;;5.43;42.42;98728.34;1720966;81;21298;-79
2022/03/21 08:32:45;;;;;;;30.15;20.35;;;;;;;5.52;42.61;98724.36;1731142;82;20984;-79
2022/03/21 08:35:11;;;;;;;30.25;20.55;;;;;;;5.61;41.54;98733.31;1737958;81;21379;-79
2022/03/21 08:37:37;;;;;;;30.05;19.80;;;;;;;5.61;41.66;98730.73;1744242;81;20916;-79
2022/03/21 08:40:04;;;;;;;25.68;18.30;;;;;;;5.67;41.59;98737.62;1740593;81;20926;-79
2022/03/21 08:42:30;;;;;;;28.90;19.12;;;;;;;5.70;40.78;98731.47;1737027;83;21048;-79
2022/03/21 08:44:56;;;;;;;28.38;19.75;;;;;;;5.75;40.95;98724.27;1751625;81;22265;-79
2022/03/21 08:47:23;;;;;;;24.25;16.45;;;;;;;5.85;40.95;98729.20;1757572;81;20945;-79
2022/03/21 08:49:49;;;;;;;26.70;17.35;;;;;;;5.93;40.67;98727.03;1764562;81;21001;-79
2022/03/21 08:52:15;;;;;;;25.57;17.90;;;;;;;6.05;39.58;98731.07;1766732;81;21363;-79
2022/03/21 08:54:41;;;;;;;26.50;18.00;;;;;;;6.08;39.23;98729.58;1760021;81;20976;-79
2022/03/21 08:57:07;;;;;;;26.70;19.12;;;;;;;6.11;39.70;98729.38;1737039;82;21315;-79
2022/03/21 08:59:33;;;;;;;26.17;17.40;;;;;;;6.17;39.70;98725.94;1744691;81;20960;-79
2022/03/21 09:01:59;;;;;;;24.15;17.77;;;;;;;6.23;39.71;98726.86;1755745;81;20952;-79
2022/03/21 09:04:26;;;;;;;26.82;17.92;;;;;;;6.30;39.74;98724.24;1716783;83;21086;-80
2022/03/21 09:06:51;;;;;;;26.77;18.60;;;;;;;6.41;39.81;98715.82;1741831;81;20957;-80
2022/03/21 09:09:18;;;;;;;27.62;19.45;;;;;;;6.53;39.39;98718.08;1735717;82;20988;-80
2022/03/21 09:11:44;;;;;;;29.25;19.27;;;;;;;6.57;38.38;98719.53;1736418;82;20980;-79
2022/03/21 09:14:10;;;;;;;30.17;20.08;;;;;;;6.57;38.29;98716.48;1736315;83;20989;-80
2022/03/21 09:16:38;;;;;;;25.25;15.88;;;;;;;6.58;38.54;98719.89;1736311;82;20997;-80
2022/03/21 09:19:04;;;;;;;20.55;13.98;;;;;;;6.57;38.67;98713.91;1736281;82;20961;-79
2022/03/21 09:21:30;;;;;;;17.60;12.10;;;;;;;6.63;38.55;98707.03;1736491;82;21387;-80
2022/03/21 09:23:55;;;;;;;15.55;11.35;;;;;;;6.69;37.98;98707.58;1736440;82;20973;-80
2022/03/21 09:26:21;;;;;;;14.98;11.18;;;;;;;6.81;37.90;98706.75;1736288;83;21000;-80
2022/03/21 09:28:48;;;;;;;15.28;10.95;;;;;;;6.92;36.17;98703.00;1736422;82;21020;-80
2022/03/21 09:31:14;;;;;;;17.85;12.55;;;;;;;6.97;36.78;98700.10;1736573;82;21335;-80
2022/03/21 09:33:41;;;;;;;16.93;12.65;;;;;;;7.02;36.94;98701.47;1744062;81;21075;-80
2022/03/21 09:36:09;;;;;;;14.78;10.53;;;;;;;7.14;37.11;98700.63;1760673;81;21052;-80
2022/03/21 09:38:36;;;;;;;14.28;10.75;;;;;;;7.30;37.05;98697.00;1763922;81;21019;-80
2022/03/21 09:41:03;;;;;;;17.20;11.63;;;;;;;7.40;36.54;98698.03;1765072;81;21004;-80
2022/03/21 09:43:29;;;;;;;14.68;10.95;;;;;;;7.46;36.12;98693.72;1766859;81;21017;-80
2022/03/21 09:45:58;;;;;;;14.00;9.88;;;;;;;7.49;35.87;98693.06;1766460;81;21741;-80
2022/03/21 09:48:26;;;;;;;15.50;10.98;;;;;;;7.55;34.36;98691.80;1759584;81;20940;-80
2022/03/21 09:50:56;;;;;;;16.82;11.85;;;;;;;7.56;35.35;98690.87;1755543;81;20965;-80
2022/03/21 09:53:21;;;;;;;11.60;9.90;;;;;;;7.60;35.70;98686.30;1746789;81;21045;-80
2022/03/21 09:55:47;;;;;;;14.58;11.12;;;;;;;7.65;36.34;98685.08;1764092;81;21034;-80
2022/03/21 09:58:13;;;;;;;14.23;11.22;;;;;;;7.80;35.96;98688.32;1765115;81;21055;-80
2022/03/21 10:00:43;;;;;;;14.73;10.35;;;;;;;7.95;35.19;98685.12;1766967;81;20976;-80
2022/03/21 10:03:09;;;;;;;17.27;12.25;;;;;;;7.97;33.97;98684.09;1742339;81;21060;-80
2022/03/21 10:05:41;;;;;;;17.73;13.93;;;;;;;7.95;35.12;98681.23;1740182;81;21445;-80
2022/03/21 10:08:20;;;;;;;;;;;;;;;7.97;35.42;98681.51;1681723;85;20980;-80
2022/03/21 10:11:05;;;;;;;17.60;13.08;;;;;;;8.00;35.68;98683.88;1708240;84;20363;-80
2022/03/21 10:13:33;;;;;;;16.97;12.53;;;;;;;8.13;35.96;98676.03;1701162;84;21411;-80
2022/03/21 10:16:13;;;;;;;15.08;10.53;;;;;;;8.25;35.99;98668.68;1701526;84;21044;-80
2022/03/21 10:18:57;;;;;;;19.70;13.58;;;;;;;8.33;35.05;98670.26;1701614;84;21004;-80
2022/03/21 10:21:26;;;;;;;19.67;15.18;;;;;;;8.36;35.52;98667.94;1701740;84;21028;-80
2022/03/21 10:24:06;;;;;;;21.68;14.70;;;;;;;8.37;35.36;98660.05;1683201;84;21048;-80
2022/03/21 10:26:41;;;;;;;18.62;12.10;;;;;;;8.46;35.45;98657.71;1702505;83;21025;-80
2022/03/21 10:29:10;;;;;;;19.05;14.45;;;;;;;8.47;35.31;98655.04;1701650;84;21040;-80
2022/03/21 10:31:46;;;;;;;19.05;14.43;;;;;;;8.54;35.21;98653.63;1738148;81;20992;-80
2022/03/21 10:34:18;;;;;;;18.48;13.75;;;;;;;8.58;35.35;98659.41;1763341;80;21495;-80
2022/03/21 10:37:14;;;;;;;21.33;15.20;;;;;;;8.63;34.30;98650.84;1759909;81;21415;-80
2022/03/21 10:39:39;;;;;;;16.55;12.58;;;;;;;8.63;34.49;98642.59;1763330;81;21321;-80
2022/03/21 10:42:09;;;;;;;18.02;13.68;;;;;;;8.69;34.31;98643.89;1764063;81;20985;-80
2022/03/21 10:44:36;;;;;;;18.25;14.20;;;;;;;8.72;34.24;98641.06;1764092;81;21399;-80
2022/03/21 10:47:07;;;;;;;13.88;10.78;;;;;;;8.77;34.48;98638.95;1763916;81;21024;-80
2022/03/21 10:49:43;;;;;;;18.80;14.58;;;;;;;8.83;33.21;98638.98;1763857;81;21001;-80
2022/03/21 10:52:08;;;;;;;18.02;13.32;;;;;;;8.83;33.67;98638.51;1757061;81;21026;-80
2022/03/21 10:54:50;;;;;;;18.07;13.58;;;;;;;8.88;33.88;98632.97;1677426;84;21112;-80
2022/03/21 10:57:38;;;;;;;15.93;13.18;;;;;;;8.92;33.97;98627.89;1762682;81;21024;-80
2022/03/21 11:00:24;;;;;;;17.87;12.95;;;;;;;8.99;34.10;98623.91;1745775;81;21045;-80
2022/03/21 11:03:03;;;;;;;16.32;12.68;;;;;;;9.12;34.78;98625.92;1762908;81;21020;-80
2022/03/21 11:05:30;;;;;;;14.35;11.20;;;;;;;9.23;34.20;98625.08;1734110;81;21144;-80
2022/03/21 11:07:56;;;;;;;19.77;13.20;;;;;;;9.33;33.25;98624.27;1744754;82;21053;-80
2022/03/21 11:10:23;;;;;;;17.02;13.38;;;;;;;9.39;32.97;98623.42;1746210;81;21040;-80
2022/03/21 11:12:48;;;;;;;17.35;13.20;;;;;;;9.45;33.60;98616.00;1743888;81;21012;-80
2022/03/21 11:15:14;;;;;;;16.25;12.13;;;;;;;9.54;33.41;98615.73;1751783;81;21313;-80
2022/03/21 11:17:45;;;;;;;17.15;12.80;;;;;;;9.53;33.02;98600.64;1751718;81;20992;-80
2022/03/21 11:20:12;;;;;;;18.40;14.10;;;;;;;9.59;33.65;98609.23;1748127;81;21327;-80
2022/03/21 11:22:39;;;;;;;19.20;14.25;;;;;;;9.74;33.54;98604.59;1746249;82;20972;-80
2022/03/21 11:25:12;;;;;;;20.12;15.03;;;;;;;9.91;33.72;98599.34;1751432;82;21015;-80
2022/03/21 11:28:03;;;;;;;18.15;12.55;;;;;;;10.04;33.43;98588.80;1749666;81;21048;-80
2022/03/21 11:31:05;;;;;;;16.32;12.80;;;;;;;10.16;32.15;98595.61;1743735;82;21707;-80
2022/03/21 11:33:58;;;;;;;16.57;12.53;;;;;;;10.20;32.77;98585.31;1740638;82;20983;-80
2022/03/21 11:36:24;;;;;;;14.40;11.60;;;;;;;10.22;30.74;98580.36;1717471;81;21057;-81
2022/03/21 11:39:03;;;;;;;17.87;12.50;;;;;;;10.20;30.35;98574.91;1717045;83;20996;-81
2022/03/21 11:41:31;;;;;;;16.35;12.37;;;;;;;10.25;31.05;98578.45;1705663;83;21018;-81
2022/03/21 11:44:15;;;;;;;15.50;11.45;;;;;;;10.33;31.80;98569.57;1702945;83;21001;-80
2022/03/21 11:46:45;;;;;;;18.55;14.33;;;;;;;10.45;31.59;98571.16;1711650;83;20955;-80
2022/03/21 11:49:28;;;;;;;19.55;15.58;;;;;;;10.52;31.25;98574.41;1700520;84;20979;-80
2022/03/21 11:51:55;;;;;;;18.92;14.87;;;;;;;10.56;31.81;98569.77;1733046;81;20947;-80